createdAt,value
2022-09-21T11:21:56.276Z,18.86
2022-09-21T11:24:46.864Z,18.22
2022-09-21T11:27:36.360Z,17.76
2022-09-21T11:30:09.694Z,17.49
2022-09-21T11:33:11.102Z,17.91
2022-09-21T11:35:47.616Z,17.82
2022-09-21T11:38:37.620Z,17.62
2022-09-21T11:41:36.103Z,17.56
2022-09-21T11:44:17.591Z,17.55
2022-09-21T11:47:10.404Z,17.48
2022-09-21T11:50:29.848Z,17.29
2022-09-21T11:53:34.735Z,17.41
2022-09-21T11:56:33.626Z,17.42
2022-09-21T11:59:42.660Z,17.12
2022-09-21T12:02:44.910Z,16.72
2022-09-21T12:05:29.796Z,17.21
2022-09-21T12:08:07.032Z,18.73
2022-09-21T12:10:42.830Z,19.77
2022-09-21T12:13:27.907Z,20.32
2022-09-21T12:16:22.039Z,21.88
2022-09-21T12:19:19.488Z,22.33
2022-09-21T12:21:52.939Z,21.77
2022-09-21T12:24:32.117Z,21.15
2022-09-21T12:27:11.835Z,20.58
2022-09-21T12:29:48.141Z,20.05
2022-09-21T12:32:54.116Z,19.52
2022-09-21T12:35:41.151Z,18.75
2022-09-21T12:38:09.606Z,18.22
2022-09-21T12:40:50.094Z,18.18
2022-09-21T12:43:43.513Z,18.21
2022-09-21T12:46:24.217Z,17.90
2022-09-21T12:48:53.330Z,18.60
2022-09-21T12:51:37.244Z,20.59
2022-09-21T12:54:43.327Z,22.86
2022-09-21T12:57:53.556Z,24.74
2022-09-21T13:00:22.421Z,26.39
2022-09-21T13:03:12.721Z,26.03
2022-09-21T13:05:51.209Z,24.61
2022-09-21T13:08:28.016Z,23.34
2022-09-21T13:11:01.438Z,22.41
2022-09-21T13:13:35.727Z,23.67
2022-09-21T13:16:06.665Z,25.35
2022-09-21T13:18:38.865Z,26.87
2022-09-21T13:21:26.534Z,28.18
2022-09-21T13:24:01.574Z,29.36
2022-09-21T13:26:50.608Z,30.21
2022-09-21T13:29:22.577Z,31.22
2022-09-21T13:32:04.522Z,32.12
2022-09-21T13:34:41.424Z,32.34
2022-09-21T13:37:15.854Z,31.28
2022-09-21T13:40:02.310Z,30.27
2022-09-21T13:42:30.991Z,28.88
2022-09-21T13:45:15.720Z,28.77
2022-09-21T13:47:50.287Z,29.13
2022-09-21T13:50:27.356Z,29.16
2022-09-21T13:52:59.916Z,28.07
2022-09-21T13:55:32.564Z,28.11
2022-09-21T13:58:05.032Z,29.23
2022-09-21T14:00:41.370Z,30.50
2022-09-21T14:03:28.889Z,31.71
2022-09-21T14:06:09.250Z,32.98
2022-09-21T14:08:49.377Z,33.87
2022-09-21T14:11:28.635Z,34.59
2022-09-21T14:14:12.187Z,35.01
2022-09-21T14:16:44.744Z,35.31
2022-09-21T14:19:19.333Z,34.23
2022-09-21T14:22:09.122Z,31.70
2022-09-21T14:24:44.895Z,29.52
2022-09-21T14:27:46.354Z,28.75
2022-09-21T14:30:20.741Z,27.85
2022-09-21T14:33:02.370Z,28.59
2022-09-21T14:35:34.682Z,29.50
2022-09-21T14:38:11.007Z,30.28
2022-09-21T14:40:47.307Z,29.22
2022-09-21T14:43:22.697Z,28.33
2022-09-21T14:46:04.105Z,27.89
2022-09-21T14:48:50.489Z,26.51
2022-09-21T14:51:27.216Z,25.03
2022-09-21T14:54:17.936Z,23.96
2022-09-21T14:57:00.474Z,23.78
2022-09-21T14:59:50.025Z,24.49
2022-09-21T15:02:44.771Z,24.33
2022-09-21T15:05:35.211Z,23.76
2022-09-21T15:09:00.523Z,22.77
2022-09-21T15:11:34.382Z,21.54
2022-09-21T15:14:35.222Z,20.79
2022-09-21T15:17:26.295Z,19.85
2022-09-21T15:20:00.903Z,19.20
2022-09-21T15:22:29.379Z,18.71
2022-09-21T15:25:02.930Z,18.24
2022-09-21T15:27:35.976Z,17.76
2022-09-21T15:30:06.543Z,17.34
2022-09-21T15:32:39.634Z,16.93
2022-09-21T15:35:22.940Z,16.55
2022-09-21T15:37:52.494Z,16.13
2022-09-21T15:40:27.563Z,15.76
2022-09-21T15:43:07.005Z,15.46
2022-09-21T15:45:52.120Z,15.20
2022-09-21T15:48:33.485Z,14.94
2022-09-21T15:51:39.793Z,14.72
2022-09-21T15:54:27.194Z,14.51
2022-09-21T15:56:55.798Z,14.33
2022-09-21T15:59:24.480Z,14.17
2022-09-21T16:01:56.924Z,14.06
2022-09-21T16:04:27.431Z,13.96
2022-09-21T16:07:08.018Z,13.84
2022-09-21T16:09:42.721Z,13.73
2022-09-21T16:12:26.686Z,13.63
2022-09-21T16:15:17.326Z,13.53
2022-09-21T16:18:03.342Z,13.43
2022-09-21T16:20:48.516Z,13.36
2022-09-21T16:23:26.940Z,13.29
2022-09-21T16:26:01.543Z,13.20
2022-09-21T16:28:39.493Z,13.14
2022-09-21T16:31:22.700Z,13.07
2022-09-21T16:33:54.646Z,12.98
2022-09-21T16:36:25.787Z,12.93
2022-09-21T16:38:54.429Z,12.86
2022-09-21T16:41:25.545Z,12.77
2022-09-21T16:43:57.528Z,12.70
2022-09-21T16:46:27.602Z,12.65
2022-09-21T16:48:56.178Z,12.60
2022-09-21T16:51:27.469Z,12.53
2022-09-21T16:53:56.681Z,12.47
2022-09-21T16:56:25.662Z,12.42
2022-09-21T16:58:53.998Z,12.37
2022-09-21T17:01:22.501Z,12.33
2022-09-21T17:03:51.239Z,12.32
2022-09-21T17:06:21.825Z,12.28
2022-09-21T17:08:50.445Z,12.25
2022-09-21T17:11:20.275Z,12.23
2022-09-21T17:13:49.910Z,12.20
2022-09-21T17:16:20.321Z,12.18
2022-09-21T17:18:49.713Z,12.17
2022-09-21T17:21:18.025Z,12.16
2022-09-21T17:23:46.539Z,12.15
2022-09-21T17:26:18.039Z,12.15
2022-09-21T17:28:46.871Z,12.13
2022-09-21T17:31:16.814Z,12.09
2022-09-21T17:33:47.982Z,12.03
2022-09-21T17:36:18.339Z,11.98
2022-09-21T17:38:46.836Z,11.91
2022-09-21T17:41:20.622Z,11.86
2022-09-21T17:44:08.256Z,11.83
2022-09-21T17:46:59.131Z,11.77
2022-09-21T17:49:27.748Z,11.70
2022-09-21T17:52:15.650Z,11.64
2022-09-21T17:54:44.541Z,11.58
2022-09-21T17:57:45.998Z,11.54
2022-09-21T18:00:20.945Z,11.47
2022-09-21T18:02:50.838Z,11.42
2022-09-21T18:05:26.556Z,11.40
2022-09-21T18:07:56.000Z,11.38
2022-09-21T18:10:26.544Z,11.36
2022-09-21T18:13:12.210Z,11.34
2022-09-21T18:15:57.533Z,11.31
2022-09-21T18:18:31.659Z,11.26
2022-09-21T18:21:04.377Z,11.19
2022-09-21T18:23:41.853Z,11.15
2022-09-21T18:26:17.008Z,11.10
2022-09-21T18:28:58.354Z,11.04
2022-09-21T18:31:42.406Z,10.98
2022-09-21T18:34:35.802Z,10.90
2022-09-21T18:37:26.452Z,10.83
2022-09-21T18:40:01.136Z,10.78
2022-09-21T18:42:29.607Z,10.73
2022-09-21T18:45:05.859Z,10.69
2022-09-21T18:47:57.596Z,10.66
2022-09-21T18:51:00.486Z,10.63
2022-09-21T18:53:38.999Z,10.58
2022-09-21T18:56:08.789Z,10.54
2022-09-21T18:58:38.815Z,10.49
2022-09-21T19:01:07.729Z,10.44
2022-09-21T19:03:37.928Z,10.38
2022-09-21T19:06:29.818Z,10.35
2022-09-21T19:09:38.402Z,10.33
2022-09-21T19:12:29.475Z,10.29
2022-09-21T19:15:48.711Z,10.25
2022-09-21T19:18:45.415Z,10.20
2022-09-21T19:21:42.087Z,10.16
2022-09-21T19:24:25.830Z,10.14
2022-09-21T19:27:18.446Z,10.14
2022-09-21T19:29:52.607Z,10.15
2022-09-21T19:32:45.206Z,10.14
2022-09-21T19:35:19.519Z,10.14
2022-09-21T19:37:49.663Z,10.14
2022-09-21T19:40:21.289Z,10.15
2022-09-21T19:43:19.110Z,10.12
2022-09-21T19:46:06.387Z,10.10
2022-09-21T19:48:43.625Z,10.06
2022-09-21T19:51:30.893Z,10.04
2022-09-21T19:54:20.252Z,10.02
2022-09-21T19:57:29.601Z,10.00
2022-09-21T19:59:58.636Z,9.97
2022-09-21T20:02:40.738Z,9.94
2022-09-21T20:05:30.883Z,9.91
2022-09-21T20:08:11.097Z,9.89
2022-09-21T20:10:51.832Z,9.86
2022-09-21T20:13:48.140Z,9.85
2022-09-21T20:16:46.273Z,9.83
2022-09-21T20:19:47.309Z,9.84
2022-09-21T20:22:18.774Z,9.86
2022-09-21T20:24:54.972Z,9.90
2022-09-21T20:27:34.948Z,9.93
2022-09-21T20:30:07.450Z,9.97
2022-09-21T20:32:38.077Z,10.00
2022-09-21T20:35:25.147Z,10.03
2022-09-21T20:37:56.483Z,10.05
2022-09-21T20:40:29.070Z,10.07
2022-09-21T20:42:59.124Z,10.09
2022-09-21T20:45:27.936Z,10.11
2022-09-21T20:48:13.350Z,10.14
2022-09-21T20:50:47.830Z,10.15
2022-09-21T20:53:17.588Z,10.18
2022-09-21T20:55:53.749Z,10.20
2022-09-21T20:58:23.151Z,10.23
2022-09-21T21:00:55.243Z,10.25
2022-09-21T21:03:26.908Z,10.27
2022-09-21T21:06:07.758Z,10.27
2022-09-21T21:08:36.529Z,10.29
2022-09-21T21:11:05.624Z,10.30
2022-09-21T21:13:34.115Z,10.32
2022-09-21T21:16:09.481Z,10.33
2022-09-21T21:18:41.208Z,10.34
2022-09-21T21:21:10.681Z,10.35
2022-09-21T21:23:57.521Z,10.35
2022-09-21T21:26:43.820Z,10.35
2022-09-21T21:29:14.656Z,10.35
2022-09-21T21:31:43.566Z,10.36
2022-09-21T21:34:11.975Z,10.36
2022-09-21T21:36:40.628Z,10.37
2022-09-21T21:39:10.953Z,10.39
2022-09-21T21:41:39.394Z,10.41
2022-09-21T21:44:07.833Z,10.43
2022-09-21T21:46:36.684Z,10.46
2022-09-21T21:49:05.675Z,10.45
2022-09-21T21:51:34.566Z,10.44
2022-09-21T21:54:03.181Z,10.43
2022-09-21T21:56:31.676Z,10.43
2022-09-21T21:58:59.884Z,10.44
2022-09-21T22:01:30.329Z,10.43
2022-09-21T22:04:01.555Z,10.41
2022-09-21T22:06:33.072Z,10.39
2022-09-21T22:09:03.230Z,10.37
2022-09-21T22:11:32.053Z,10.34
2022-09-21T22:14:02.153Z,10.35
2022-09-21T22:16:32.716Z,10.36
2022-09-21T22:19:04.768Z,10.35
2022-09-21T22:21:39.237Z,10.33
2022-09-21T22:24:13.599Z,10.31
2022-09-21T22:26:44.534Z,10.31
2022-09-21T22:29:14.290Z,10.30
2022-09-21T22:31:45.460Z,10.29
2022-09-21T22:34:15.021Z,10.26
2022-09-21T22:36:44.083Z,10.23
2022-09-21T22:39:13.066Z,10.21
2022-09-21T22:41:43.056Z,10.21
2022-09-21T22:44:11.617Z,10.22
2022-09-21T22:46:40.524Z,10.19
2022-09-21T22:49:09.089Z,10.17
2022-09-21T22:51:38.298Z,10.16
2022-09-21T22:54:07.371Z,10.15
2022-09-21T22:56:35.945Z,10.14
2022-09-21T22:59:05.359Z,10.15
2022-09-21T23:01:37.399Z,10.14
2022-09-21T23:04:09.324Z,10.14
2022-09-21T23:06:40.495Z,10.14
2022-09-21T23:09:13.745Z,10.14
2022-09-21T23:11:47.368Z,10.14
2022-09-21T23:14:16.904Z,10.12
2022-09-21T23:16:45.840Z,10.11
2022-09-21T23:19:17.995Z,10.11
2022-09-21T23:21:49.794Z,10.12
2022-09-21T23:24:19.873Z,10.12
2022-09-21T23:26:51.665Z,10.12
2022-09-21T23:29:20.404Z,10.13
2022-09-21T23:31:48.700Z,10.15
2022-09-21T23:34:17.446Z,10.18
2022-09-21T23:36:46.229Z,10.19
2022-09-21T23:39:15.741Z,10.20
2022-09-21T23:41:44.867Z,10.21
2022-09-21T23:44:13.618Z,10.22
2022-09-21T23:46:42.870Z,10.22
2022-09-21T23:49:11.809Z,10.21
2022-09-21T23:51:41.006Z,10.19
2022-09-21T23:54:09.355Z,10.18
2022-09-21T23:56:38.282Z,10.16
2022-09-21T23:59:06.894Z,10.15
